<?xml version="1.0" encoding="UTF-8" standalone="no" ?>
<gpx xmlns="http://www.topografix.com/GPX/1/1" xmlns:xsi="http://www.w3.org/2001/XMLSchema-instance" xsi:schemaLocation="http://www.topografix.com/GPX/1/1 http://www.topografix.com/GPX/1/1/gpx.xsd" version="1.1" creator="VisuGPX - https://www.visugpx.com">
  <metadata>
    <name>Salagou sportif 2021 départ celles</name>
  </metadata>
  <trk>
    <name><![CDATA[Sportif 2021]]></name>
    <extensions>
      <line xmlns="http://www.topografix.com/GPX/gpx_style/0/2">
        <color>0000FF</color>
        <width>4</width>
      </line>
    </extensions>
    <trkseg>
      <trkpt lat="43.66229" lon="3.33988">
        <ele>144.5</ele>
        <time>2022-07-04T06:27:01.000Z</time>
      </trkpt>
      <trkpt lat="43.66264" lon="3.33993">
        <ele>147.4</ele>
        <time>2022-07-04T06:27:27.056Z</time>
      </trkpt>
      <trkpt lat="43.66314" lon="3.33983">
        <ele>150.7</ele>
        <time>2022-07-04T06:27:52.868Z</time>
      </trkpt>
      <trkpt lat="43.66354" lon="3.33959">
        <ele>152.4</ele>
        <time>2022-07-04T06:28:21.186Z</time>
      </trkpt>
      <trkpt lat="43.66406" lon="3.3394">
        <ele>153.3</ele>
        <time>2022-07-04T06:28:47.749Z</time>
      </trkpt>
      <trkpt lat="43.66445" lon="3.3391">
        <ele>159.6</ele>
        <time>2022-07-04T06:29:22.074Z</time>
      </trkpt>
      <trkpt lat="43.66482" lon="3.33875">
        <ele>160.7</ele>
        <time>2022-07-04T06:29:46.733Z</time>
      </trkpt>
      <trkpt lat="43.66513" lon="3.3384">
        <ele>164.2</ele>
        <time>2022-07-04T06:30:37.008Z</time>
      </trkpt>
      <trkpt lat="43.66546" lon="3.33822">
        <ele>169.6</ele>
        <time>2022-07-04T06:30:48.561Z</time>
      </trkpt>
      <trkpt lat="43.66597" lon="3.33821">
        <ele>177.9</ele>
        <time>2022-07-04T06:31:52.629Z</time>
      </trkpt>
      <trkpt lat="43.66637" lon="3.33812">
        <ele>181.9</ele>
        <time>2022-07-04T06:32:26.520Z</time>
      </trkpt>
      <trkpt lat="43.66663" lon="3.33782">
        <ele>183.5</ele>
        <time>2022-07-04T06:32:37.549Z</time>
      </trkpt>
      <trkpt lat="43.66704" lon="3.33735">
        <ele>188.3</ele>
        <time>2022-07-04T06:33:13.847Z</time>
      </trkpt>
      <trkpt lat="43.66742" lon="3.3369">
        <ele>187.8</ele>
        <time>2022-07-04T06:33:22.523Z</time>
      </trkpt>
      <trkpt lat="43.66768" lon="3.3366">
        <ele>185.4</ele>
        <time>2022-07-04T06:33:33.551Z</time>
      </trkpt>
      <trkpt lat="43.6678" lon="3.33572">
        <ele>183.1</ele>
        <time>2022-07-04T06:33:45.416Z</time>
      </trkpt>
      <trkpt lat="43.66819" lon="3.33568">
        <ele>185.4</ele>
        <time>2022-07-04T06:34:07.852Z</time>
      </trkpt>
      <trkpt lat="43.6686" lon="3.3357">
        <ele>188</ele>
        <time>2022-07-04T06:34:21.212Z</time>
      </trkpt>
      <trkpt lat="43.6692" lon="3.33554">
        <ele>185.6</ele>
        <time>2022-07-04T06:34:30.429Z</time>
      </trkpt>
      <trkpt lat="43.67008" lon="3.33559">
        <ele>183.6</ele>
        <time>2022-07-04T06:34:42.191Z</time>
      </trkpt>
      <trkpt lat="43.67063" lon="3.33537">
        <ele>174.5</ele>
        <time>2022-07-04T06:34:49.194Z</time>
      </trkpt>
      <trkpt lat="43.67124" lon="3.33516">
        <ele>167.1</ele>
        <time>2022-07-04T06:34:56.882Z</time>
      </trkpt>
      <trkpt lat="43.67169" lon="3.33498">
        <ele>163</ele>
        <time>2022-07-04T06:35:02.611Z</time>
      </trkpt>
      <trkpt lat="43.67235" lon="3.33518">
        <ele>160.8</ele>
        <time>2022-07-04T06:35:10.635Z</time>
      </trkpt>
      <trkpt lat="43.67276" lon="3.33525">
        <ele>156.1</ele>
        <time>2022-07-04T06:35:15.687Z</time>
      </trkpt>
      <trkpt lat="43.67317" lon="3.33557">
        <ele>156.1</ele>
        <time>2022-07-04T06:35:23.732Z</time>
      </trkpt>
      <trkpt lat="43.67345" lon="3.33597">
        <ele>157.7</ele>
        <time>2022-07-04T06:35:36.844Z</time>
      </trkpt>
      <trkpt lat="43.67396" lon="3.33643">
        <ele>154.3</ele>
        <time>2022-07-04T06:36:00.185Z</time>
      </trkpt>
      <trkpt lat="43.67445" lon="3.3365">
        <ele>149.3</ele>
        <time>2022-07-04T06:36:06.209Z</time>
      </trkpt>
      <trkpt lat="43.67511" lon="3.33654">
        <ele>146.5</ele>
        <time>2022-07-04T06:36:13.971Z</time>
      </trkpt>
      <trkpt lat="43.67524" lon="3.33718">
        <ele>147.3</ele>
        <time>2022-07-04T06:36:33.313Z</time>
      </trkpt>
      <trkpt lat="43.67542" lon="3.33768">
        <ele>152.1</ele>
        <time>2022-07-04T06:37:00.664Z</time>
      </trkpt>
      <trkpt lat="43.67559" lon="3.33824">
        <ele>155.7</ele>
        <time>2022-07-04T06:37:24.965Z</time>
      </trkpt>
      <trkpt lat="43.67559" lon="3.33898">
        <ele>161.1</ele>
        <time>2022-07-04T06:37:42.394Z</time>
      </trkpt>
      <trkpt lat="43.67574" lon="3.33976">
        <ele>158.7</ele>
        <time>2022-07-04T06:37:49.533Z</time>
      </trkpt>
      <trkpt lat="43.67607" lon="3.34023">
        <ele>154.5</ele>
        <time>2022-07-04T06:37:56.049Z</time>
      </trkpt>
      <trkpt lat="43.67631" lon="3.34067">
        <ele>151.9</ele>
        <time>2022-07-04T06:38:02.570Z</time>
      </trkpt>
      <trkpt lat="43.6767" lon="3.34071">
        <ele>151.5</ele>
        <time>2022-07-04T06:38:08.933Z</time>
      </trkpt>
      <trkpt lat="43.67703" lon="3.34084">
        <ele>145.4</ele>
        <time>2022-07-04T06:38:13.038Z</time>
      </trkpt>
      <trkpt lat="43.67741" lon="3.34146">
        <ele>137.3</ele>
        <time>2022-07-04T06:38:20.227Z</time>
      </trkpt>
      <trkpt lat="43.67772" lon="3.34218">
        <ele>131.3</ele>
        <time>2022-07-04T06:38:27.638Z</time>
      </trkpt>
      <trkpt lat="43.67791" lon="3.34274">
        <ele>129.2</ele>
        <time>2022-07-04T06:38:33.109Z</time>
      </trkpt>
      <trkpt lat="43.67794" lon="3.34347">
        <ele>126.6</ele>
        <time>2022-07-04T06:38:50.330Z</time>
      </trkpt>
      <trkpt lat="43.67748" lon="3.34326">
        <ele>132.1</ele>
        <time>2022-07-04T06:39:20.254Z</time>
      </trkpt>
      <trkpt lat="43.67723" lon="3.3439">
        <ele>135</ele>
        <time>2022-07-04T06:39:56.371Z</time>
      </trkpt>
      <trkpt lat="43.67707" lon="3.34443">
        <ele>138.8</ele>
        <time>2022-07-04T06:40:09.897Z</time>
      </trkpt>
      <trkpt lat="43.6768" lon="3.3449">
        <ele>137.1</ele>
        <time>2022-07-04T06:40:27.815Z</time>
      </trkpt>
      <trkpt lat="43.67605" lon="3.34498">
        <ele>139.3</ele>
        <time>2022-07-04T06:41:06.411Z</time>
      </trkpt>
      <trkpt lat="43.67583" lon="3.34552">
        <ele>136.4</ele>
        <time>2022-07-04T06:41:13.977Z</time>
      </trkpt>
      <trkpt lat="43.67569" lon="3.3462">
        <ele>138.5</ele>
        <time>2022-07-04T06:41:22.888Z</time>
      </trkpt>
      <trkpt lat="43.67567" lon="3.34699">
        <ele>137.5</ele>
        <time>2022-07-04T06:41:45.058Z</time>
      </trkpt>
      <trkpt lat="43.6754" lon="3.34796">
        <ele>136.7</ele>
        <time>2022-07-04T06:42:09.539Z</time>
      </trkpt>
      <trkpt lat="43.67516" lon="3.34865">
        <ele>138.2</ele>
        <time>2022-07-04T06:42:27.572Z</time>
      </trkpt>
      <trkpt lat="43.67473" lon="3.34949">
        <ele>139.8</ele>
        <time>2022-07-04T06:43:05.997Z</time>
      </trkpt>
      <trkpt lat="43.67439" lon="3.35046">
        <ele>140.5</ele>
        <time>2022-07-04T06:43:17.105Z</time>
      </trkpt>
      <trkpt lat="43.67414" lon="3.35131">
        <ele>138.4</ele>
        <time>2022-07-04T06:43:42.178Z</time>
      </trkpt>
      <trkpt lat="43.67385" lon="3.35217">
        <ele>137.1</ele>
        <time>2022-07-04T06:43:54.885Z</time>
      </trkpt>
      <trkpt lat="43.6732" lon="3.35269">
        <ele>138.8</ele>
        <time>2022-07-04T06:44:27.231Z</time>
      </trkpt>
      <trkpt lat="43.6724" lon="3.35312">
        <ele>141.9</ele>
        <time>2022-07-04T06:44:58.522Z</time>
      </trkpt>
      <trkpt lat="43.67179" lon="3.35345">
        <ele>142.3</ele>
        <time>2022-07-04T06:45:10.545Z</time>
      </trkpt>
      <trkpt lat="43.6716" lon="3.35306">
        <ele>144.7</ele>
        <time>2022-07-04T06:45:31.098Z</time>
      </trkpt>
      <trkpt lat="43.67123" lon="3.35293">
        <ele>147.4</ele>
        <time>2022-07-04T06:45:53.182Z</time>
      </trkpt>
      <trkpt lat="43.67106" lon="3.35246">
        <ele>149.2</ele>
        <time>2022-07-04T06:46:19.887Z</time>
      </trkpt>
      <trkpt lat="43.67087" lon="3.35183">
        <ele>152.6</ele>
        <time>2022-07-04T06:46:45.450Z</time>
      </trkpt>
      <trkpt lat="43.67065" lon="3.35134">
        <ele>155.8</ele>
        <time>2022-07-04T06:47:37.849Z</time>
      </trkpt>
      <trkpt lat="43.67035" lon="3.35138">
        <ele>156.8</ele>
        <time>2022-07-04T06:47:51.949Z</time>
      </trkpt>
      <trkpt lat="43.6701" lon="3.35184">
        <ele>154.4</ele>
        <time>2022-07-04T06:47:57.039Z</time>
      </trkpt>
      <trkpt lat="43.66989" lon="3.35246">
        <ele>148.4</ele>
        <time>2022-07-04T06:48:03.095Z</time>
      </trkpt>
      <trkpt lat="43.67005" lon="3.35317">
        <ele>143.4</ele>
        <time>2022-07-04T06:48:09.664Z</time>
      </trkpt>
      <trkpt lat="43.67023" lon="3.35412">
        <ele>141.7</ele>
        <time>2022-07-04T06:48:20.904Z</time>
      </trkpt>
      <trkpt lat="43.67046" lon="3.35465">
        <ele>142.3</ele>
        <time>2022-07-04T06:48:39.214Z</time>
      </trkpt>
      <trkpt lat="43.6702" lon="3.3553">
        <ele>141.9</ele>
        <time>2022-07-04T06:49:00.306Z</time>
      </trkpt>
      <trkpt lat="43.6698" lon="3.35517">
        <ele>140.2</ele>
        <time>2022-07-04T06:49:05.332Z</time>
      </trkpt>
      <trkpt lat="43.66948" lon="3.3553">
        <ele>140.3</ele>
        <time>2022-07-04T06:49:09.268Z</time>
      </trkpt>
      <trkpt lat="43.66918" lon="3.35587">
        <ele>141.1</ele>
        <time>2022-07-04T06:49:29.509Z</time>
      </trkpt>
      <trkpt lat="43.66897" lon="3.35619">
        <ele>140.6</ele>
        <time>2022-07-04T06:49:34.259Z</time>
      </trkpt>
      <trkpt lat="43.66874" lon="3.35668">
        <ele>141</ele>
        <time>2022-07-04T06:49:57.906Z</time>
      </trkpt>
      <trkpt lat="43.66861" lon="3.35713">
        <ele>140.7</ele>
        <time>2022-07-04T06:50:13.358Z</time>
      </trkpt>
      <trkpt lat="43.66828" lon="3.35734">
        <ele>142.3</ele>
        <time>2022-07-04T06:50:17.801Z</time>
      </trkpt>
      <trkpt lat="43.66769" lon="3.35734">
        <ele>139.7</ele>
        <time>2022-07-04T06:50:26.596Z</time>
      </trkpt>
      <trkpt lat="43.66755" lon="3.35796">
        <ele>141.4</ele>
        <time>2022-07-04T06:51:01.350Z</time>
      </trkpt>
      <trkpt lat="43.66726" lon="3.35839">
        <ele>141.5</ele>
        <time>2022-07-04T06:51:19.001Z</time>
      </trkpt>
      <trkpt lat="43.66684" lon="3.359">
        <ele>142.3</ele>
        <time>2022-07-04T06:51:30.025Z</time>
      </trkpt>
      <trkpt lat="43.66659" lon="3.35932">
        <ele>141.3</ele>
        <time>2022-07-04T06:51:35.348Z</time>
      </trkpt>
      <trkpt lat="43.66619" lon="3.35995">
        <ele>141.4</ele>
        <time>2022-07-04T06:51:55.094Z</time>
      </trkpt>
      <trkpt lat="43.66648" lon="3.36057">
        <ele>145</ele>
        <time>2022-07-04T06:52:21.567Z</time>
      </trkpt>
      <trkpt lat="43.6664" lon="3.36134">
        <ele>143.2</ele>
        <time>2022-07-04T06:52:43.455Z</time>
      </trkpt>
      <trkpt lat="43.66644" lon="3.36206">
        <ele>142.3</ele>
        <time>2022-07-04T06:53:04.083Z</time>
      </trkpt>
      <trkpt lat="43.66642" lon="3.36257">
        <ele>141.9</ele>
        <time>2022-07-04T06:53:25.707Z</time>
      </trkpt>
      <trkpt lat="43.66594" lon="3.36276">
        <ele>141.3</ele>
        <time>2022-07-04T06:53:32.714Z</time>
      </trkpt>
      <trkpt lat="43.6656" lon="3.36286">
        <ele>140.5</ele>
        <time>2022-07-04T06:53:36.965Z</time>
      </trkpt>
      <trkpt lat="43.66555" lon="3.36383">
        <ele>141.2</ele>
        <time>2022-07-04T06:54:07.940Z</time>
      </trkpt>
      <trkpt lat="43.66557" lon="3.36452">
        <ele>142.7</ele>
        <time>2022-07-04T06:54:38.391Z</time>
      </trkpt>
      <trkpt lat="43.66518" lon="3.36525">
        <ele>143.8</ele>
        <time>2022-07-04T06:55:08.045Z</time>
      </trkpt>
      <trkpt lat="43.66496" lon="3.36604">
        <ele>144.8</ele>
        <time>2022-07-04T06:55:14.976Z</time>
      </trkpt>
      <trkpt lat="43.66473" lon="3.36688">
        <ele>148.7</ele>
        <time>2022-07-04T06:56:06.180Z</time>
      </trkpt>
      <trkpt lat="43.66446" lon="3.36776">
        <ele>147.5</ele>
        <time>2022-07-04T06:56:36.815Z</time>
      </trkpt>
      <trkpt lat="43.66414" lon="3.36844">
        <ele>142.3</ele>
        <time>2022-07-04T06:56:43.992Z</time>
      </trkpt>
      <trkpt lat="43.66371" lon="3.36922">
        <ele>145.4</ele>
        <time>2022-07-04T06:57:10.519Z</time>
      </trkpt>
      <trkpt lat="43.66334" lon="3.36979">
        <ele>141.3</ele>
        <time>2022-07-04T06:57:18.598Z</time>
      </trkpt>
      <trkpt lat="43.6628" lon="3.37072">
        <ele>143.7</ele>
        <time>2022-07-04T06:57:33.015Z</time>
      </trkpt>
      <trkpt lat="43.66273" lon="3.3716">
        <ele>143.7</ele>
        <time>2022-07-04T06:57:53.871Z</time>
      </trkpt>
      <trkpt lat="43.6628" lon="3.3725">
        <ele>141.2</ele>
        <time>2022-07-04T06:58:15.196Z</time>
      </trkpt>
      <trkpt lat="43.66264" lon="3.37335">
        <ele>140.1</ele>
        <time>2022-07-04T06:58:39.373Z</time>
      </trkpt>
      <trkpt lat="43.66257" lon="3.37389">
        <ele>140.8</ele>
        <time>2022-07-04T06:58:52.297Z</time>
      </trkpt>
      <trkpt lat="43.66278" lon="3.37454">
        <ele>141</ele>
        <time>2022-07-04T06:59:12.696Z</time>
      </trkpt>
      <trkpt lat="43.66298" lon="3.37524">
        <ele>143.8</ele>
        <time>2022-07-04T06:59:34.012Z</time>
      </trkpt>
      <trkpt lat="43.66291" lon="3.37614">
        <ele>143.9</ele>
        <time>2022-07-04T07:00:03.620Z</time>
      </trkpt>
      <trkpt lat="43.66283" lon="3.37693">
        <ele>143.8</ele>
        <time>2022-07-04T07:00:22.413Z</time>
      </trkpt>
      <trkpt lat="43.66263" lon="3.37787">
        <ele>143.9</ele>
        <time>2022-07-04T07:00:48.921Z</time>
      </trkpt>
      <trkpt lat="43.6622" lon="3.37887">
        <ele>141.9</ele>
        <time>2022-07-04T07:01:01.248Z</time>
      </trkpt>
      <trkpt lat="43.66231" lon="3.37952">
        <ele>151.5</ele>
        <time>2022-07-04T07:02:01.907Z</time>
      </trkpt>
      <trkpt lat="43.66167" lon="3.38006">
        <ele>148.1</ele>
        <time>2022-07-04T07:02:13.962Z</time>
      </trkpt>
      <trkpt lat="43.66177" lon="3.38118">
        <ele>150.9</ele>
        <time>2022-07-04T07:03:56.508Z</time>
      </trkpt>
      <trkpt lat="43.6615" lon="3.38196">
        <ele>150.9</ele>
        <time>2022-07-04T07:04:04.158Z</time>
      </trkpt>
      <trkpt lat="43.66154" lon="3.38339">
        <ele>150.6</ele>
        <time>2022-07-04T07:04:45.121Z</time>
      </trkpt>
      <trkpt lat="43.66101" lon="3.3844">
        <ele>141.5</ele>
        <time>2022-07-04T07:04:57.297Z</time>
      </trkpt>
      <trkpt lat="43.66118" lon="3.38553">
        <ele>146.9</ele>
        <time>2022-07-04T07:05:32.131Z</time>
      </trkpt>
      <trkpt lat="43.66086" lon="3.3865">
        <ele>143</ele>
        <time>2022-07-04T07:05:41.864Z</time>
      </trkpt>
      <trkpt lat="43.66065" lon="3.38777">
        <ele>147.6</ele>
        <time>2022-07-04T07:06:25.188Z</time>
      </trkpt>
      <trkpt lat="43.66093" lon="3.38756">
        <ele>150.7</ele>
        <time>2022-07-04T07:07:05.202Z</time>
      </trkpt>
      <trkpt lat="43.66133" lon="3.38711">
        <ele>156.2</ele>
        <time>2022-07-04T07:07:31.249Z</time>
      </trkpt>
      <trkpt lat="43.66134" lon="3.38759">
        <ele>161.6</ele>
        <time>2022-07-04T07:08:14.885Z</time>
      </trkpt>
      <trkpt lat="43.6612" lon="3.38815">
        <ele>163.7</ele>
        <time>2022-07-04T07:08:28.843Z</time>
      </trkpt>
      <trkpt lat="43.66118" lon="3.38878">
        <ele>166.5</ele>
        <time>2022-07-04T07:09:26.147Z</time>
      </trkpt>
      <trkpt lat="43.66117" lon="3.38931">
        <ele>173.1</ele>
        <time>2022-07-04T07:10:14.324Z</time>
      </trkpt>
      <trkpt lat="43.66094" lon="3.38992">
        <ele>175.2</ele>
        <time>2022-07-04T07:10:22.942Z</time>
      </trkpt>
      <trkpt lat="43.66092" lon="3.39065">
        <ele>179.8</ele>
        <time>2022-07-04T07:11:29.325Z</time>
      </trkpt>
      <trkpt lat="43.66098" lon="3.3913">
        <ele>187.4</ele>
        <time>2022-07-04T07:12:28.870Z</time>
      </trkpt>
      <trkpt lat="43.66111" lon="3.39209">
        <ele>193.1</ele>
        <time>2022-07-04T07:13:30.099Z</time>
      </trkpt>
      <trkpt lat="43.66103" lon="3.39273">
        <ele>201.2</ele>
        <time>2022-07-04T07:14:24.599Z</time>
      </trkpt>
      <trkpt lat="43.66134" lon="3.39238">
        <ele>202.7</ele>
        <time>2022-07-04T07:14:37.634Z</time>
      </trkpt>
      <trkpt lat="43.66149" lon="3.39176">
        <ele>208.9</ele>
        <time>2022-07-04T07:15:02.773Z</time>
      </trkpt>
      <trkpt lat="43.66171" lon="3.39235">
        <ele>218.6</ele>
        <time>2022-07-04T07:16:03.089Z</time>
      </trkpt>
      <trkpt lat="43.6614" lon="3.39306">
        <ele>220.5</ele>
        <time>2022-07-04T07:16:10.426Z</time>
      </trkpt>
      <trkpt lat="43.66114" lon="3.39364">
        <ele>223.4</ele>
        <time>2022-07-04T07:16:52.762Z</time>
      </trkpt>
      <trkpt lat="43.66096" lon="3.39404">
        <ele>224.3</ele>
        <time>2022-07-04T07:17:07.940Z</time>
      </trkpt>
      <trkpt lat="43.66099" lon="3.3944">
        <ele>227.5</ele>
        <time>2022-07-04T07:17:21.062Z</time>
      </trkpt>
      <trkpt lat="43.66128" lon="3.3946">
        <ele>228.2</ele>
        <time>2022-07-04T07:17:35.774Z</time>
      </trkpt>
      <trkpt lat="43.6617" lon="3.39492">
        <ele>224.4</ele>
        <time>2022-07-04T07:17:44.005Z</time>
      </trkpt>
      <trkpt lat="43.66223" lon="3.39501">
        <ele>217.5</ele>
        <time>2022-07-04T07:17:50.536Z</time>
      </trkpt>
      <trkpt lat="43.6625" lon="3.39506">
        <ele>214</ele>
        <time>2022-07-04T07:18:16.131Z</time>
      </trkpt>
      <trkpt lat="43.66297" lon="3.39522">
        <ele>216.2</ele>
        <time>2022-07-04T07:18:24.458Z</time>
      </trkpt>
      <trkpt lat="43.66332" lon="3.39526">
        <ele>217.2</ele>
        <time>2022-07-04T07:18:39.930Z</time>
      </trkpt>
      <trkpt lat="43.66372" lon="3.3951">
        <ele>216.8</ele>
        <time>2022-07-04T07:19:13.891Z</time>
      </trkpt>
      <trkpt lat="43.66382" lon="3.39533">
        <ele>218.9</ele>
        <time>2022-07-04T07:19:20.212Z</time>
      </trkpt>
      <trkpt lat="43.66345" lon="3.39564">
        <ele>217.6</ele>
        <time>2022-07-04T07:19:27.448Z</time>
      </trkpt>
      <trkpt lat="43.66324" lon="3.39599">
        <ele>217.6</ele>
        <time>2022-07-04T07:19:31.471Z</time>
      </trkpt>
      <trkpt lat="43.66289" lon="3.39609">
        <ele>215</ele>
        <time>2022-07-04T07:19:37.137Z</time>
      </trkpt>
      <trkpt lat="43.66248" lon="3.39644">
        <ele>220.7</ele>
        <time>2022-07-04T07:19:43.030Z</time>
      </trkpt>
      <trkpt lat="43.6622" lon="3.39657">
        <ele>216.3</ele>
        <time>2022-07-04T07:19:46.643Z</time>
      </trkpt>
      <trkpt lat="43.66189" lon="3.39709">
        <ele>220.4</ele>
        <time>2022-07-04T07:20:39.907Z</time>
      </trkpt>
      <trkpt lat="43.66144" lon="3.39715">
        <ele>218.5</ele>
        <time>2022-07-04T07:20:45.436Z</time>
      </trkpt>
      <trkpt lat="43.66103" lon="3.3972">
        <ele>208.8</ele>
        <time>2022-07-04T07:20:50.470Z</time>
      </trkpt>
      <trkpt lat="43.66094" lon="3.39768">
        <ele>218.7</ele>
        <time>2022-07-04T07:21:35.529Z</time>
      </trkpt>
      <trkpt lat="43.66042" lon="3.39802">
        <ele>217.4</ele>
        <time>2022-07-04T07:21:42.564Z</time>
      </trkpt>
      <trkpt lat="43.65994" lon="3.39854">
        <ele>223.6</ele>
        <time>2022-07-04T07:22:42.901Z</time>
      </trkpt>
      <trkpt lat="43.65942" lon="3.39889">
        <ele>223.8</ele>
        <time>2022-07-04T07:23:01.736Z</time>
      </trkpt>
      <trkpt lat="43.65889" lon="3.39928">
        <ele>222</ele>
        <time>2022-07-04T07:23:09.079Z</time>
      </trkpt>
      <trkpt lat="43.65884" lon="3.39977">
        <ele>220.3</ele>
        <time>2022-07-04T07:23:20.738Z</time>
      </trkpt>
      <trkpt lat="43.65895" lon="3.40033">
        <ele>220</ele>
        <time>2022-07-04T07:23:34.409Z</time>
      </trkpt>
      <trkpt lat="43.6593" lon="3.40087">
        <ele>219.6</ele>
        <time>2022-07-04T07:24:40.294Z</time>
      </trkpt>
      <trkpt lat="43.65983" lon="3.40151">
        <ele>219</ele>
        <time>2022-07-04T07:25:11.277Z</time>
      </trkpt>
      <trkpt lat="43.65993" lon="3.40213">
        <ele>217</ele>
        <time>2022-07-04T07:25:16.897Z</time>
      </trkpt>
      <trkpt lat="43.66017" lon="3.40266">
        <ele>217.4</ele>
        <time>2022-07-04T07:26:13.073Z</time>
      </trkpt>
      <trkpt lat="43.66026" lon="3.40311">
        <ele>218</ele>
        <time>2022-07-04T07:26:18.336Z</time>
      </trkpt>
      <trkpt lat="43.66025" lon="3.4039">
        <ele>214.4</ele>
        <time>2022-07-04T07:26:25.511Z</time>
      </trkpt>
      <trkpt lat="43.6604" lon="3.40438">
        <ele>215.3</ele>
      </trkpt>
      <trkpt lat="43.66064" lon="3.4047">
        <ele>217.4</ele>
        <time>2022-07-04T07:27:04.623Z</time>
      </trkpt>
      <trkpt lat="43.6609" lon="3.40474">
        <ele>217.3</ele>
        <time>2022-07-04T07:27:09.678Z</time>
      </trkpt>
      <trkpt lat="43.66092" lon="3.40513">
        <ele>212.5</ele>
      </trkpt>
      <trkpt lat="43.66074" lon="3.40548">
        <ele>208.4</ele>
        <time>2022-07-04T07:27:13.630Z</time>
      </trkpt>
      <trkpt lat="43.6604" lon="3.40521">
        <ele>206.2</ele>
        <time>2022-07-04T07:27:30.292Z</time>
      </trkpt>
      <trkpt lat="43.66009" lon="3.40489">
        <ele>195.4</ele>
        <time>2022-07-04T07:27:35.023Z</time>
      </trkpt>
      <trkpt lat="43.66011" lon="3.40513">
        <ele>193.1</ele>
      </trkpt>
      <trkpt lat="43.66008" lon="3.40539">
        <ele>185.5</ele>
        <time>2022-07-04T07:27:38.781Z</time>
      </trkpt>
      <trkpt lat="43.66003" lon="3.40557">
        <ele>179</ele>
        <time>2022-07-04T07:27:41.965Z</time>
      </trkpt>
      <trkpt lat="43.65985" lon="3.40562">
        <ele>171.6</ele>
      </trkpt>
      <trkpt lat="43.65967" lon="3.406">
        <ele>158.5</ele>
        <time>2022-07-04T07:27:46.757Z</time>
      </trkpt>
      <trkpt lat="43.65972" lon="3.4064">
        <ele>151.8</ele>
      </trkpt>
      <trkpt lat="43.65992" lon="3.40663">
        <ele>152.5</ele>
        <time>2022-07-04T07:27:52.220Z</time>
      </trkpt>
      <trkpt lat="43.66032" lon="3.40709">
        <ele>148.9</ele>
        <time>2022-07-04T07:27:58.459Z</time>
      </trkpt>
      <trkpt lat="43.66046" lon="3.40765">
        <ele>138.7</ele>
        <time>2022-07-04T07:28:03.742Z</time>
      </trkpt>
      <trkpt lat="43.66039" lon="3.40824">
        <ele>124.7</ele>
        <time>2022-07-04T07:28:08.968Z</time>
      </trkpt>
      <trkpt lat="43.6603" lon="3.40853">
        <ele>119.3</ele>
      </trkpt>
      <trkpt lat="43.66016" lon="3.40864">
        <ele>115.9</ele>
        <time>2022-07-04T07:28:13.489Z</time>
      </trkpt>
      <trkpt lat="43.66005" lon="3.40861">
        <ele>114.7</ele>
      </trkpt>
      <trkpt lat="43.66006" lon="3.40837">
        <ele>116.9</ele>
        <time>2022-07-04T07:28:39.948Z</time>
      </trkpt>
      <trkpt lat="43.65987" lon="3.4082">
        <ele>116.8</ele>
        <time>2022-07-04T07:28:44.127Z</time>
      </trkpt>
      <trkpt lat="43.65963" lon="3.40808">
        <ele>116.2</ele>
        <time>2022-07-04T07:28:56.057Z</time>
      </trkpt>
      <trkpt lat="43.65949" lon="3.40762">
        <ele>120</ele>
        <time>2022-07-04T07:29:06.518Z</time>
      </trkpt>
      <trkpt lat="43.65933" lon="3.40754">
        <ele>118</ele>
      </trkpt>
      <trkpt lat="43.65925" lon="3.40732">
        <ele>119.6</ele>
        <time>2022-07-04T07:29:11.492Z</time>
      </trkpt>
      <trkpt lat="43.6591" lon="3.40685">
        <ele>121.6</ele>
        <time>2022-07-04T07:29:33.197Z</time>
      </trkpt>
      <trkpt lat="43.65867" lon="3.40621">
        <ele>127.1</ele>
        <time>2022-07-04T07:30:24.040Z</time>
      </trkpt>
      <trkpt lat="43.65854" lon="3.40387">
        <ele>142</ele>
        <time>2022-07-04T07:32:34.688Z</time>
      </trkpt>
      <trkpt lat="43.65804" lon="3.40204">
        <ele>153.8</ele>
        <time>2022-07-04T07:33:50.036Z</time>
      </trkpt>
      <trkpt lat="43.65752" lon="3.40048">
        <ele>155.8</ele>
        <time>2022-07-04T07:34:41.993Z</time>
      </trkpt>
      <trkpt lat="43.65688" lon="3.3988">
        <ele>150.3</ele>
        <time>2022-07-04T07:35:06.775Z</time>
      </trkpt>
      <trkpt lat="43.65695" lon="3.39927">
        <ele>150.3</ele>
        <time>2022-07-04T07:35:10.689Z</time>
      </trkpt>
      <trkpt lat="43.6571" lon="3.39974">
        <ele>150.1</ele>
        <time>2022-07-04T07:35:34.308Z</time>
      </trkpt>
      <trkpt lat="43.65711" lon="3.40013">
        <ele>147.2</ele>
        <time>2022-07-04T07:35:37.472Z</time>
      </trkpt>
      <trkpt lat="43.65716" lon="3.40033">
        <ele>146</ele>
        <time>2022-07-04T07:35:39.280Z</time>
      </trkpt>
      <trkpt lat="43.65659" lon="3.40112">
        <ele>141.1</ele>
        <time>2022-07-04T07:35:48.667Z</time>
      </trkpt>
      <trkpt lat="43.65593" lon="3.40207">
        <ele>139.2</ele>
        <time>2022-07-04T07:36:25.833Z</time>
      </trkpt>
      <trkpt lat="43.65546" lon="3.40275">
        <ele>140.1</ele>
        <time>2022-07-04T07:36:36.673Z</time>
      </trkpt>
      <trkpt lat="43.65495" lon="3.40347">
        <ele>147.4</ele>
      </trkpt>
      <trkpt lat="43.65485" lon="3.40326">
        <ele>146.7</ele>
        <time>2022-07-04T07:37:53.200Z</time>
      </trkpt>
      <trkpt lat="43.65451" lon="3.40282">
        <ele>147.9</ele>
        <time>2022-07-04T07:38:29.217Z</time>
      </trkpt>
      <trkpt lat="43.65406" lon="3.40232">
        <ele>149.8</ele>
        <time>2022-07-04T07:38:39.551Z</time>
      </trkpt>
      <trkpt lat="43.6536" lon="3.40211">
        <ele>154.6</ele>
        <time>2022-07-04T07:39:09.475Z</time>
      </trkpt>
      <trkpt lat="43.65319" lon="3.40196">
        <ele>158</ele>
        <time>2022-07-04T07:40:02.749Z</time>
      </trkpt>
      <trkpt lat="43.653" lon="3.40188">
        <ele>158.4</ele>
        <time>2022-07-04T07:40:27.697Z</time>
      </trkpt>
      <trkpt lat="43.65281" lon="3.40172">
        <ele>161.6</ele>
        <time>2022-07-04T07:40:55.644Z</time>
      </trkpt>
      <trkpt lat="43.65283" lon="3.40119">
        <ele>161.9</ele>
        <time>2022-07-04T07:41:00.340Z</time>
      </trkpt>
      <trkpt lat="43.65283" lon="3.40078">
        <ele>159.9</ele>
        <time>2022-07-04T07:41:03.968Z</time>
      </trkpt>
      <trkpt lat="43.6524" lon="3.40026">
        <ele>168.5</ele>
        <time>2022-07-04T07:42:15.737Z</time>
      </trkpt>
      <trkpt lat="43.65212" lon="3.39985">
        <ele>166.2</ele>
        <time>2022-07-04T07:42:20.726Z</time>
      </trkpt>
      <trkpt lat="43.65177" lon="3.39977">
        <ele>168.7</ele>
        <time>2022-07-04T07:42:55.032Z</time>
      </trkpt>
      <trkpt lat="43.65153" lon="3.39967">
        <ele>168.7</ele>
        <time>2022-07-04T07:43:26.519Z</time>
      </trkpt>
      <trkpt lat="43.65139" lon="3.39945">
        <ele>167.1</ele>
        <time>2022-07-04T07:43:33.422Z</time>
      </trkpt>
      <trkpt lat="43.65132" lon="3.39894">
        <ele>172.6</ele>
        <time>2022-07-04T07:43:45.654Z</time>
      </trkpt>
      <trkpt lat="43.65154" lon="3.39839">
        <ele>171.2</ele>
        <time>2022-07-04T07:43:51.215Z</time>
      </trkpt>
      <trkpt lat="43.65152" lon="3.39732">
        <ele>175.1</ele>
        <time>2022-07-04T07:44:35.796Z</time>
      </trkpt>
      <trkpt lat="43.65148" lon="3.39616">
        <ele>173.6</ele>
        <time>2022-07-04T07:45:03.160Z</time>
      </trkpt>
      <trkpt lat="43.65151" lon="3.39555">
        <ele>173.6</ele>
        <time>2022-07-04T07:45:21.328Z</time>
      </trkpt>
      <trkpt lat="43.65165" lon="3.39506">
        <ele>174.9</ele>
        <time>2022-07-04T07:45:25.990Z</time>
      </trkpt>
      <trkpt lat="43.65161" lon="3.39421">
        <ele>177.9</ele>
        <time>2022-07-04T07:46:00.783Z</time>
      </trkpt>
      <trkpt lat="43.65156" lon="3.39319">
        <ele>178.4</ele>
        <time>2022-07-04T07:46:24.872Z</time>
      </trkpt>
      <trkpt lat="43.65142" lon="3.39235">
        <ele>179</ele>
        <time>2022-07-04T07:46:59.950Z</time>
      </trkpt>
      <trkpt lat="43.65117" lon="3.3916">
        <ele>180.3</ele>
        <time>2022-07-04T07:47:43.608Z</time>
      </trkpt>
      <trkpt lat="43.65087" lon="3.3911">
        <ele>180</ele>
        <time>2022-07-04T07:48:02.618Z</time>
      </trkpt>
      <trkpt lat="43.65062" lon="3.39077">
        <ele>180</ele>
        <time>2022-07-04T07:48:06.768Z</time>
      </trkpt>
      <trkpt lat="43.65024" lon="3.39058">
        <ele>175.8</ele>
        <time>2022-07-04T07:48:11.711Z</time>
      </trkpt>
      <trkpt lat="43.64972" lon="3.39049">
        <ele>172.7</ele>
        <time>2022-07-04T07:48:18.120Z</time>
      </trkpt>
      <trkpt lat="43.64913" lon="3.39051">
        <ele>166.6</ele>
        <time>2022-07-04T07:48:25.338Z</time>
      </trkpt>
      <trkpt lat="43.64911" lon="3.39017">
        <ele>164.3</ele>
        <time>2022-07-04T07:48:28.787Z</time>
      </trkpt>
      <trkpt lat="43.64901" lon="3.3897">
        <ele>159.2</ele>
        <time>2022-07-04T07:48:33.122Z</time>
      </trkpt>
      <trkpt lat="43.64886" lon="3.38928">
        <ele>156.1</ele>
        <time>2022-07-04T07:48:38.408Z</time>
      </trkpt>
      <trkpt lat="43.64863" lon="3.389">
        <ele>153.2</ele>
        <time>2022-07-04T07:48:42.156Z</time>
      </trkpt>
      <trkpt lat="43.64836" lon="3.38876">
        <ele>150.2</ele>
        <time>2022-07-04T07:48:47.078Z</time>
      </trkpt>
      <trkpt lat="43.64812" lon="3.3884">
        <ele>146.8</ele>
        <time>2022-07-04T07:48:51.410Z</time>
      </trkpt>
      <trkpt lat="43.64787" lon="3.38871">
        <ele>144.7</ele>
        <time>2022-07-04T07:48:56.634Z</time>
      </trkpt>
      <trkpt lat="43.64751" lon="3.38913">
        <ele>143</ele>
        <time>2022-07-04T07:49:04.685Z</time>
      </trkpt>
      <trkpt lat="43.64736" lon="3.38941">
        <ele>143.4</ele>
        <time>2022-07-04T07:49:12.895Z</time>
      </trkpt>
      <trkpt lat="43.64715" lon="3.38908">
        <ele>142.8</ele>
        <time>2022-07-04T07:49:17.755Z</time>
      </trkpt>
      <trkpt lat="43.64697" lon="3.38886">
        <ele>142.9</ele>
        <time>2022-07-04T07:49:25.580Z</time>
      </trkpt>
      <trkpt lat="43.64688" lon="3.38889">
        <ele>143.2</ele>
        <time>2022-07-04T07:49:28.595Z</time>
      </trkpt>
      <trkpt lat="43.6468" lon="3.38887">
        <ele>143.5</ele>
        <time>2022-07-04T07:49:31.243Z</time>
      </trkpt>
      <trkpt lat="43.64665" lon="3.38889">
        <ele>144</ele>
        <time>2022-07-04T07:49:36.150Z</time>
      </trkpt>
      <trkpt lat="43.64677" lon="3.38805">
        <ele>142.6</ele>
        <time>2022-07-04T07:49:45.539Z</time>
      </trkpt>
      <trkpt lat="43.64593" lon="3.38689">
        <ele>141.9</ele>
        <time>2022-07-04T07:50:09.360Z</time>
      </trkpt>
      <trkpt lat="43.64502" lon="3.38644">
        <ele>140</ele>
        <time>2022-07-04T07:50:24.194Z</time>
      </trkpt>
      <trkpt lat="43.64441" lon="3.38594">
        <ele>140.1</ele>
        <time>2022-07-04T07:50:55.334Z</time>
      </trkpt>
      <trkpt lat="43.64437" lon="3.38529">
        <ele>140.3</ele>
        <time>2022-07-04T07:51:01.817Z</time>
      </trkpt>
      <trkpt lat="43.64393" lon="3.38478">
        <ele>139.9</ele>
        <time>2022-07-04T07:51:24.068Z</time>
      </trkpt>
      <trkpt lat="43.64409" lon="3.38308">
        <ele>139.9</ele>
        <time>2022-07-04T07:52:04.467Z</time>
      </trkpt>
      <trkpt lat="43.64395" lon="3.3818">
        <ele>140.8</ele>
        <time>2022-07-04T07:52:38.280Z</time>
      </trkpt>
      <trkpt lat="43.64382" lon="3.3808">
        <ele>141.2</ele>
        <time>2022-07-04T07:52:52.059Z</time>
      </trkpt>
      <trkpt lat="43.64347" lon="3.38013">
        <ele>140.5</ele>
        <time>2022-07-04T07:53:11.533Z</time>
      </trkpt>
      <trkpt lat="43.64374" lon="3.37912">
        <ele>140.5</ele>
        <time>2022-07-04T07:53:36.906Z</time>
      </trkpt>
      <trkpt lat="43.64396" lon="3.37828">
        <ele>139.7</ele>
        <time>2022-07-04T07:54:01.434Z</time>
      </trkpt>
      <trkpt lat="43.64401" lon="3.37728">
        <ele>140.1</ele>
        <time>2022-07-04T07:54:25.055Z</time>
      </trkpt>
      <trkpt lat="43.64464" lon="3.37483">
        <ele>139.9</ele>
        <time>2022-07-04T07:54:59.302Z</time>
      </trkpt>
      <trkpt lat="43.64451" lon="3.37351">
        <ele>139.8</ele>
        <time>2022-07-04T07:55:33.991Z</time>
      </trkpt>
      <trkpt lat="43.64414" lon="3.37267">
        <ele>140.1</ele>
        <time>2022-07-04T07:56:05.199Z</time>
      </trkpt>
      <trkpt lat="43.64357" lon="3.37172">
        <ele>140.1</ele>
        <time>2022-07-04T07:56:47.207Z</time>
      </trkpt>
      <trkpt lat="43.64316" lon="3.37131">
        <ele>141.9</ele>
        <time>2022-07-04T07:57:03.688Z</time>
      </trkpt>
      <trkpt lat="43.64295" lon="3.37045">
        <ele>141.6</ele>
        <time>2022-07-04T07:57:15.750Z</time>
      </trkpt>
      <trkpt lat="43.64303" lon="3.36932">
        <ele>142.7</ele>
        <time>2022-07-04T07:57:42.507Z</time>
      </trkpt>
      <trkpt lat="43.64305" lon="3.36854">
        <ele>143.4</ele>
        <time>2022-07-04T07:58:04.460Z</time>
      </trkpt>
      <trkpt lat="43.64285" lon="3.36781">
        <ele>144</ele>
        <time>2022-07-04T07:58:14.523Z</time>
      </trkpt>
      <trkpt lat="43.64307" lon="3.36685">
        <ele>139.9</ele>
        <time>2022-07-04T07:58:23.488Z</time>
      </trkpt>
      <trkpt lat="43.64294" lon="3.36615">
        <ele>139.4</ele>
        <time>2022-07-04T07:58:40.519Z</time>
      </trkpt>
      <trkpt lat="43.64283" lon="3.36493">
        <ele>140</ele>
        <time>2022-07-04T07:59:29.560Z</time>
      </trkpt>
      <trkpt lat="43.64288" lon="3.36429">
        <ele>143.2</ele>
        <time>2022-07-04T07:59:54.563Z</time>
      </trkpt>
      <trkpt lat="43.643" lon="3.36348">
        <ele>145.6</ele>
        <time>2022-07-04T08:00:28.664Z</time>
      </trkpt>
      <trkpt lat="43.64292" lon="3.36199">
        <ele>155.9</ele>
        <time>2022-07-04T08:01:32.529Z</time>
      </trkpt>
      <trkpt lat="43.64378" lon="3.36131">
        <ele>151.7</ele>
        <time>2022-07-04T08:01:47.858Z</time>
      </trkpt>
      <trkpt lat="43.64439" lon="3.3609">
        <ele>149.7</ele>
        <time>2022-07-04T08:01:58.440Z</time>
      </trkpt>
      <trkpt lat="43.64506" lon="3.36053">
        <ele>147.8</ele>
        <time>2022-07-04T08:02:08.422Z</time>
      </trkpt>
      <trkpt lat="43.64576" lon="3.36007">
        <ele>146.1</ele>
        <time>2022-07-04T08:02:21.003Z</time>
      </trkpt>
      <trkpt lat="43.64644" lon="3.35979">
        <ele>144.5</ele>
        <time>2022-07-04T08:02:44.110Z</time>
      </trkpt>
      <trkpt lat="43.64729" lon="3.36095">
        <ele>139.3</ele>
        <time>2022-07-04T08:03:00.594Z</time>
      </trkpt>
      <trkpt lat="43.64782" lon="3.36025">
        <ele>138.9</ele>
        <time>2022-07-04T08:03:14.327Z</time>
      </trkpt>
      <trkpt lat="43.64812" lon="3.35936">
        <ele>140.6</ele>
        <time>2022-07-04T08:03:56.524Z</time>
      </trkpt>
      <trkpt lat="43.64848" lon="3.35825">
        <ele>140.2</ele>
        <time>2022-07-04T08:04:09.619Z</time>
      </trkpt>
      <trkpt lat="43.64876" lon="3.35745">
        <ele>140.1</ele>
        <time>2022-07-04T08:04:34.038Z</time>
      </trkpt>
      <trkpt lat="43.64967" lon="3.35666">
        <ele>140</ele>
        <time>2022-07-04T08:04:55.340Z</time>
      </trkpt>
      <trkpt lat="43.64981" lon="3.35608">
        <ele>140</ele>
        <time>2022-07-04T08:05:13.509Z</time>
      </trkpt>
      <trkpt lat="43.64997" lon="3.35522">
        <ele>140.1</ele>
        <time>2022-07-04T08:05:25.258Z</time>
      </trkpt>
      <trkpt lat="43.64906" lon="3.35436">
        <ele>140.7</ele>
        <time>2022-07-04T08:06:08.314Z</time>
      </trkpt>
      <trkpt lat="43.64937" lon="3.35378">
        <ele>139.7</ele>
        <time>2022-07-04T08:06:15.758Z</time>
      </trkpt>
      <trkpt lat="43.64901" lon="3.35288">
        <ele>140.4</ele>
        <time>2022-07-04T08:06:43.392Z</time>
      </trkpt>
      <trkpt lat="43.64912" lon="3.35245">
        <ele>140.2</ele>
        <time>2022-07-04T08:06:48.496Z</time>
      </trkpt>
      <trkpt lat="43.64879" lon="3.35167">
        <ele>140.4</ele>
        <time>2022-07-04T08:07:00.492Z</time>
      </trkpt>
      <trkpt lat="43.64864" lon="3.35081">
        <ele>139.9</ele>
        <time>2022-07-04T08:07:29.695Z</time>
      </trkpt>
      <trkpt lat="43.64833" lon="3.35017">
        <ele>141</ele>
        <time>2022-07-04T08:07:47.843Z</time>
      </trkpt>
      <trkpt lat="43.64829" lon="3.34899">
        <ele>140.1</ele>
        <time>2022-07-04T08:08:15.679Z</time>
      </trkpt>
      <trkpt lat="43.64882" lon="3.34817">
        <ele>146.9</ele>
        <time>2022-07-04T08:09:23.421Z</time>
      </trkpt>
      <trkpt lat="43.64975" lon="3.34682">
        <ele>158.6</ele>
        <time>2022-07-04T08:10:54.653Z</time>
      </trkpt>
      <trkpt lat="43.65018" lon="3.34567">
        <ele>166.9</ele>
        <time>2022-07-04T08:12:52.304Z</time>
      </trkpt>
      <trkpt lat="43.65058" lon="3.34469">
        <ele>181.7</ele>
        <time>2022-07-04T08:14:34.567Z</time>
      </trkpt>
      <trkpt lat="43.65025" lon="3.34417">
        <ele>182.5</ele>
        <time>2022-07-04T08:14:40.476Z</time>
      </trkpt>
      <trkpt lat="43.64991" lon="3.34367">
        <ele>177.9</ele>
        <time>2022-07-04T08:14:46.547Z</time>
      </trkpt>
      <trkpt lat="43.64979" lon="3.34275">
        <ele>179.4</ele>
        <time>2022-07-04T08:15:27.516Z</time>
      </trkpt>
      <trkpt lat="43.64959" lon="3.34218">
        <ele>181.4</ele>
        <time>2022-07-04T08:15:42.443Z</time>
      </trkpt>
      <trkpt lat="43.64945" lon="3.34154">
        <ele>180.7</ele>
        <time>2022-07-04T08:15:50.765Z</time>
      </trkpt>
      <trkpt lat="43.6494" lon="3.34095">
        <ele>178.8</ele>
        <time>2022-07-04T08:16:04.762Z</time>
      </trkpt>
      <trkpt lat="43.6494" lon="3.34027">
        <ele>177</ele>
        <time>2022-07-04T08:16:10.524Z</time>
      </trkpt>
      <trkpt lat="43.64942" lon="3.33989">
        <ele>174.4</ele>
        <time>2022-07-04T08:16:13.895Z</time>
      </trkpt>
      <trkpt lat="43.64934" lon="3.33927">
        <ele>166.6</ele>
        <time>2022-07-04T08:16:19.468Z</time>
      </trkpt>
      <trkpt lat="43.64921" lon="3.33858">
        <ele>160.2</ele>
        <time>2022-07-04T08:16:25.778Z</time>
      </trkpt>
      <trkpt lat="43.64945" lon="3.33828">
        <ele>159.9</ele>
        <time>2022-07-04T08:16:30.752Z</time>
      </trkpt>
      <trkpt lat="43.6497" lon="3.33796">
        <ele>160.5</ele>
        <time>2022-07-04T08:16:36.075Z</time>
      </trkpt>
      <trkpt lat="43.64991" lon="3.33756">
        <ele>159.4</ele>
        <time>2022-07-04T08:16:40.437Z</time>
      </trkpt>
      <trkpt lat="43.65009" lon="3.33707">
        <ele>157.2</ele>
        <time>2022-07-04T08:16:45.523Z</time>
      </trkpt>
      <trkpt lat="43.65023" lon="3.33651">
        <ele>154.3</ele>
        <time>2022-07-04T08:16:51.185Z</time>
      </trkpt>
      <trkpt lat="43.65034" lon="3.33605">
        <ele>151.6</ele>
        <time>2022-07-04T08:16:55.472Z</time>
      </trkpt>
      <trkpt lat="43.65037" lon="3.33555">
        <ele>149.3</ele>
        <time>2022-07-04T08:16:59.930Z</time>
      </trkpt>
      <trkpt lat="43.65044" lon="3.33472">
        <ele>147</ele>
        <time>2022-07-04T08:17:10.855Z</time>
      </trkpt>
      <trkpt lat="43.65074" lon="3.33378">
        <ele>143.3</ele>
        <time>2022-07-04T08:17:35.063Z</time>
      </trkpt>
      <trkpt lat="43.65009" lon="3.33358">
        <ele>143.2</ele>
        <time>2022-07-04T08:17:47.324Z</time>
      </trkpt>
      <trkpt lat="43.64931" lon="3.33338">
        <ele>142.1</ele>
        <time>2022-07-04T08:18:00.284Z</time>
      </trkpt>
      <trkpt lat="43.64841" lon="3.3329">
        <ele>142.8</ele>
        <time>2022-07-04T08:18:31.700Z</time>
      </trkpt>
      <trkpt lat="43.6484" lon="3.3316">
        <ele>140.6</ele>
        <time>2022-07-04T08:18:50.021Z</time>
      </trkpt>
      <trkpt lat="43.64791" lon="3.33079">
        <ele>140.5</ele>
        <time>2022-07-04T08:19:14.900Z</time>
      </trkpt>
      <trkpt lat="43.64713" lon="3.32991">
        <ele>140.6</ele>
        <time>2022-07-04T08:19:47.690Z</time>
      </trkpt>
      <trkpt lat="43.6465" lon="3.33018">
        <ele>140.9</ele>
        <time>2022-07-04T08:20:09.170Z</time>
      </trkpt>
      <trkpt lat="43.64573" lon="3.32976">
        <ele>142.4</ele>
        <time>2022-07-04T08:20:59.755Z</time>
      </trkpt>
      <trkpt lat="43.64542" lon="3.3292">
        <ele>142.6</ele>
        <time>2022-07-04T08:21:16.370Z</time>
      </trkpt>
      <trkpt lat="43.64491" lon="3.32851">
        <ele>140.7</ele>
        <time>2022-07-04T08:21:27.679Z</time>
      </trkpt>
      <trkpt lat="43.64438" lon="3.32788">
        <ele>141.6</ele>
        <time>2022-07-04T08:21:40.666Z</time>
      </trkpt>
      <trkpt lat="43.64332" lon="3.32774">
        <ele>143.7</ele>
        <time>2022-07-04T08:22:33.533Z</time>
      </trkpt>
      <trkpt lat="43.64272" lon="3.32754">
        <ele>142</ele>
        <time>2022-07-04T08:22:57.135Z</time>
      </trkpt>
      <trkpt lat="43.64213" lon="3.32717">
        <ele>142.4</ele>
        <time>2022-07-04T08:23:19.840Z</time>
      </trkpt>
      <trkpt lat="43.64173" lon="3.32677">
        <ele>140.2</ele>
        <time>2022-07-04T08:23:37.563Z</time>
      </trkpt>
      <trkpt lat="43.64148" lon="3.32647">
        <ele>140.2</ele>
        <time>2022-07-04T08:23:42.857Z</time>
      </trkpt>
      <trkpt lat="43.64129" lon="3.32613">
        <ele>140.4</ele>
        <time>2022-07-04T08:23:47.148Z</time>
      </trkpt>
      <trkpt lat="43.64091" lon="3.32544">
        <ele>140.7</ele>
        <time>2022-07-04T08:23:57.191Z</time>
      </trkpt>
      <trkpt lat="43.64067" lon="3.32495">
        <ele>141</ele>
        <time>2022-07-04T08:24:13.188Z</time>
      </trkpt>
      <trkpt lat="43.64033" lon="3.32459">
        <ele>141.9</ele>
        <time>2022-07-04T08:24:35.105Z</time>
      </trkpt>
      <trkpt lat="43.64003" lon="3.32455">
        <ele>142.9</ele>
        <time>2022-07-04T08:24:47.109Z</time>
      </trkpt>
      <trkpt lat="43.63978" lon="3.32447">
        <ele>143.1</ele>
        <time>2022-07-04T08:24:56.468Z</time>
      </trkpt>
      <trkpt lat="43.6404" lon="3.32424">
        <ele>142</ele>
        <time>2022-07-04T08:25:15.551Z</time>
      </trkpt>
      <trkpt lat="43.6414" lon="3.3244">
        <ele>141.2</ele>
        <time>2022-07-04T08:25:33.664Z</time>
      </trkpt>
      <trkpt lat="43.64222" lon="3.32491">
        <ele>141</ele>
        <time>2022-07-04T08:25:50.572Z</time>
      </trkpt>
      <trkpt lat="43.64251" lon="3.32404">
        <ele>142.4</ele>
        <time>2022-07-04T08:26:21.254Z</time>
      </trkpt>
      <trkpt lat="43.64291" lon="3.32335">
        <ele>145.4</ele>
        <time>2022-07-04T08:26:42.089Z</time>
      </trkpt>
      <trkpt lat="43.64317" lon="3.32255">
        <ele>147.6</ele>
        <time>2022-07-04T08:27:17.592Z</time>
      </trkpt>
      <trkpt lat="43.64317" lon="3.32161">
        <ele>149</ele>
        <time>2022-07-04T08:27:54.758Z</time>
      </trkpt>
      <trkpt lat="43.64309" lon="3.32077">
        <ele>148.5</ele>
        <time>2022-07-04T08:28:14.724Z</time>
      </trkpt>
      <trkpt lat="43.6433" lon="3.3202">
        <ele>146.7</ele>
        <time>2022-07-04T08:28:29.797Z</time>
      </trkpt>
      <trkpt lat="43.64334" lon="3.3196">
        <ele>147.4</ele>
        <time>2022-07-04T08:28:53.971Z</time>
      </trkpt>
      <trkpt lat="43.64334" lon="3.31902">
        <ele>149.5</ele>
        <time>2022-07-04T08:29:17.509Z</time>
      </trkpt>
      <trkpt lat="43.64361" lon="3.31829">
        <ele>151.2</ele>
        <time>2022-07-04T08:29:26.369Z</time>
      </trkpt>
      <trkpt lat="43.64379" lon="3.31686">
        <ele>155.8</ele>
        <time>2022-07-04T08:30:12.693Z</time>
      </trkpt>
      <trkpt lat="43.64378" lon="3.31624">
        <ele>157.2</ele>
        <time>2022-07-04T08:30:37.369Z</time>
      </trkpt>
      <trkpt lat="43.64394" lon="3.31565">
        <ele>157.1</ele>
        <time>2022-07-04T08:31:02.190Z</time>
      </trkpt>
      <trkpt lat="43.6441" lon="3.31501">
        <ele>156.9</ele>
        <time>2022-07-04T08:31:09.017Z</time>
      </trkpt>
      <trkpt lat="43.64395" lon="3.31404">
        <ele>160.1</ele>
        <time>2022-07-04T08:31:35.811Z</time>
      </trkpt>
      <trkpt lat="43.64395" lon="3.31335">
        <ele>158.4</ele>
        <time>2022-07-04T08:31:49.656Z</time>
      </trkpt>
      <trkpt lat="43.64353" lon="3.31246">
        <ele>163.2</ele>
        <time>2022-07-04T08:32:06.391Z</time>
      </trkpt>
      <trkpt lat="43.64317" lon="3.31141">
        <ele>164.8</ele>
        <time>2022-07-04T08:32:38.033Z</time>
      </trkpt>
      <trkpt lat="43.64274" lon="3.30985">
        <ele>167.6</ele>
        <time>2022-07-04T08:33:01.363Z</time>
      </trkpt>
      <trkpt lat="43.6427" lon="3.30834">
        <ele>167.9</ele>
        <time>2022-07-04T08:33:28.400Z</time>
      </trkpt>
      <trkpt lat="43.64357" lon="3.30859">
        <ele>161.4</ele>
        <time>2022-07-04T08:33:59.144Z</time>
      </trkpt>
      <trkpt lat="43.64404" lon="3.30851">
        <ele>161.2</ele>
        <time>2022-07-04T08:34:04.936Z</time>
      </trkpt>
      <trkpt lat="43.64476" lon="3.30855">
        <ele>161</ele>
        <time>2022-07-04T08:34:31.819Z</time>
      </trkpt>
      <trkpt lat="43.64537" lon="3.30844">
        <ele>161.9</ele>
        <time>2022-07-04T08:35:00.348Z</time>
      </trkpt>
      <trkpt lat="43.64597" lon="3.30834">
        <ele>163.5</ele>
        <time>2022-07-04T08:35:18.924Z</time>
      </trkpt>
      <trkpt lat="43.64652" lon="3.30777">
        <ele>165</ele>
        <time>2022-07-04T08:35:56.448Z</time>
      </trkpt>
      <trkpt lat="43.64698" lon="3.30744">
        <ele>166.3</ele>
        <time>2022-07-04T08:36:22.553Z</time>
      </trkpt>
      <trkpt lat="43.64758" lon="3.30727">
        <ele>168.1</ele>
        <time>2022-07-04T08:36:46.006Z</time>
      </trkpt>
      <trkpt lat="43.64817" lon="3.30666">
        <ele>170</ele>
        <time>2022-07-04T08:37:24.273Z</time>
      </trkpt>
      <trkpt lat="43.64865" lon="3.30611">
        <ele>172</ele>
        <time>2022-07-04T08:37:53.026Z</time>
      </trkpt>
      <trkpt lat="43.64924" lon="3.30565">
        <ele>174.7</ele>
        <time>2022-07-04T08:38:23.263Z</time>
      </trkpt>
      <trkpt lat="43.64962" lon="3.30538">
        <ele>176</ele>
        <time>2022-07-04T08:38:40.975Z</time>
      </trkpt>
      <trkpt lat="43.65043" lon="3.30537">
        <ele>177.4</ele>
        <time>2022-07-04T08:39:15.063Z</time>
      </trkpt>
      <trkpt lat="43.65084" lon="3.30522">
        <ele>178.8</ele>
        <time>2022-07-04T08:39:28.875Z</time>
      </trkpt>
      <trkpt lat="43.6512" lon="3.30519">
        <ele>179</ele>
        <time>2022-07-04T08:39:44.618Z</time>
      </trkpt>
      <trkpt lat="43.65148" lon="3.30579">
        <ele>183.4</ele>
        <time>2022-07-04T08:40:15.677Z</time>
      </trkpt>
      <trkpt lat="43.65189" lon="3.30561">
        <ele>184.4</ele>
        <time>2022-07-04T08:40:29.686Z</time>
      </trkpt>
      <trkpt lat="43.65212" lon="3.30546">
        <ele>183.9</ele>
        <time>2022-07-04T08:40:37.968Z</time>
      </trkpt>
      <trkpt lat="43.65262" lon="3.30494">
        <ele>182.8</ele>
        <time>2022-07-04T08:41:13.126Z</time>
      </trkpt>
      <trkpt lat="43.65302" lon="3.30445">
        <ele>184.7</ele>
        <time>2022-07-04T08:41:44.835Z</time>
      </trkpt>
      <trkpt lat="43.65343" lon="3.30409">
        <ele>185.5</ele>
        <time>2022-07-04T08:42:14.803Z</time>
      </trkpt>
      <trkpt lat="43.654" lon="3.30354">
        <ele>188.8</ele>
        <time>2022-07-04T08:42:52.240Z</time>
      </trkpt>
      <trkpt lat="43.65443" lon="3.30308">
        <ele>192.9</ele>
        <time>2022-07-04T08:43:13.535Z</time>
      </trkpt>
      <trkpt lat="43.65488" lon="3.30258">
        <ele>198.2</ele>
        <time>2022-07-04T08:43:46.840Z</time>
      </trkpt>
      <trkpt lat="43.65514" lon="3.30236">
        <ele>200.3</ele>
        <time>2022-07-04T08:44:23.940Z</time>
      </trkpt>
      <trkpt lat="43.65552" lon="3.30263">
        <ele>202</ele>
        <time>2022-07-04T08:44:37.854Z</time>
      </trkpt>
      <trkpt lat="43.65584" lon="3.30275">
        <ele>204.9</ele>
        <time>2022-07-04T08:45:13.003Z</time>
      </trkpt>
      <trkpt lat="43.65622" lon="3.30297">
        <ele>207.4</ele>
        <time>2022-07-04T08:45:57.065Z</time>
      </trkpt>
      <trkpt lat="43.65638" lon="3.30344">
        <ele>207</ele>
        <time>2022-07-04T08:46:01.753Z</time>
      </trkpt>
      <trkpt lat="43.65658" lon="3.30375">
        <ele>209.2</ele>
        <time>2022-07-04T08:46:20.946Z</time>
      </trkpt>
      <trkpt lat="43.65696" lon="3.3041">
        <ele>214.7</ele>
        <time>2022-07-04T08:46:49.929Z</time>
      </trkpt>
      <trkpt lat="43.65733" lon="3.3042">
        <ele>217.6</ele>
        <time>2022-07-04T08:47:36.737Z</time>
      </trkpt>
      <trkpt lat="43.65774" lon="3.30413">
        <ele>223.4</ele>
        <time>2022-07-04T08:48:28.628Z</time>
      </trkpt>
      <trkpt lat="43.65816" lon="3.30429">
        <ele>227</ele>
        <time>2022-07-04T08:48:56.934Z</time>
      </trkpt>
      <trkpt lat="43.65862" lon="3.30436">
        <ele>232.6</ele>
        <time>2022-07-04T08:49:31.549Z</time>
      </trkpt>
      <trkpt lat="43.65916" lon="3.30431">
        <ele>238.8</ele>
        <time>2022-07-04T08:50:35.732Z</time>
      </trkpt>
      <trkpt lat="43.6597" lon="3.30397">
        <ele>249.7</ele>
        <time>2022-07-04T08:51:50.267Z</time>
      </trkpt>
      <trkpt lat="43.66025" lon="3.3037">
        <ele>255.6</ele>
        <time>2022-07-04T08:52:28.095Z</time>
      </trkpt>
      <trkpt lat="43.6605" lon="3.30351">
        <ele>257.2</ele>
        <time>2022-07-04T08:52:46.805Z</time>
      </trkpt>
      <trkpt lat="43.66082" lon="3.30322">
        <ele>259.4</ele>
        <time>2022-07-04T08:53:08.922Z</time>
      </trkpt>
      <trkpt lat="43.66118" lon="3.30306">
        <ele>258.3</ele>
        <time>2022-07-04T08:53:15.017Z</time>
      </trkpt>
      <trkpt lat="43.66142" lon="3.30273">
        <ele>263.8</ele>
        <time>2022-07-04T08:53:57.538Z</time>
      </trkpt>
      <trkpt lat="43.66163" lon="3.30261">
        <ele>262.4</ele>
        <time>2022-07-04T08:54:00.317Z</time>
      </trkpt>
      <trkpt lat="43.66178" lon="3.30228">
        <ele>265.9</ele>
        <time>2022-07-04T08:54:35.732Z</time>
      </trkpt>
      <trkpt lat="43.6618" lon="3.30192">
        <ele>272.6</ele>
        <time>2022-07-04T08:55:08.541Z</time>
      </trkpt>
      <trkpt lat="43.66181" lon="3.30158">
        <ele>278.5</ele>
        <time>2022-07-04T08:55:39.462Z</time>
      </trkpt>
      <trkpt lat="43.66199" lon="3.30163">
        <ele>273</ele>
        <time>2022-07-04T08:55:41.708Z</time>
      </trkpt>
      <trkpt lat="43.66214" lon="3.30176">
        <ele>272.1</ele>
        <time>2022-07-04T08:55:43.873Z</time>
      </trkpt>
      <trkpt lat="43.66229" lon="3.30194">
        <ele>269.1</ele>
        <time>2022-07-04T08:55:46.302Z</time>
      </trkpt>
      <trkpt lat="43.66251" lon="3.30193">
        <ele>275.5</ele>
        <time>2022-07-04T08:56:03.419Z</time>
      </trkpt>
      <trkpt lat="43.66291" lon="3.30186">
        <ele>278.6</ele>
        <time>2022-07-04T08:56:37.302Z</time>
      </trkpt>
      <trkpt lat="43.66327" lon="3.30179">
        <ele>280.2</ele>
        <time>2022-07-04T08:57:03.609Z</time>
      </trkpt>
      <trkpt lat="43.66355" lon="3.30162">
        <ele>284</ele>
        <time>2022-07-04T08:57:17.826Z</time>
      </trkpt>
      <trkpt lat="43.66392" lon="3.3014">
        <ele>287.1</ele>
        <time>2022-07-04T08:57:40.709Z</time>
      </trkpt>
      <trkpt lat="43.66431" lon="3.30114">
        <ele>287.5</ele>
        <time>2022-07-04T08:57:58.593Z</time>
      </trkpt>
      <trkpt lat="43.66455" lon="3.3007">
        <ele>294.8</ele>
        <time>2022-07-04T08:58:48.666Z</time>
      </trkpt>
      <trkpt lat="43.6648" lon="3.30042">
        <ele>297.1</ele>
        <time>2022-07-04T08:59:14.229Z</time>
      </trkpt>
      <trkpt lat="43.66501" lon="3.30023">
        <ele>298.1</ele>
        <time>2022-07-04T08:59:22.403Z</time>
      </trkpt>
      <trkpt lat="43.66511" lon="3.29989">
        <ele>304.5</ele>
        <time>2022-07-04T08:59:55.753Z</time>
      </trkpt>
      <trkpt lat="43.6653" lon="3.29978">
        <ele>302.6</ele>
        <time>2022-07-04T08:59:58.272Z</time>
      </trkpt>
      <trkpt lat="43.66556" lon="3.29955">
        <ele>303.8</ele>
        <time>2022-07-04T09:00:08.324Z</time>
      </trkpt>
      <trkpt lat="43.66581" lon="3.2992">
        <ele>307.6</ele>
        <time>2022-07-04T09:00:42.605Z</time>
      </trkpt>
      <trkpt lat="43.666" lon="3.29885">
        <ele>309.8</ele>
        <time>2022-07-04T09:01:02.334Z</time>
      </trkpt>
      <trkpt lat="43.66614" lon="3.29828">
        <ele>312.2</ele>
        <time>2022-07-04T09:01:20.292Z</time>
      </trkpt>
      <trkpt lat="43.66609" lon="3.29784">
        <ele>319</ele>
        <time>2022-07-04T09:02:00.762Z</time>
      </trkpt>
      <trkpt lat="43.66619" lon="3.29755">
        <ele>318.5</ele>
        <time>2022-07-04T09:02:03.604Z</time>
      </trkpt>
      <trkpt lat="43.66628" lon="3.29704">
        <ele>322.5</ele>
        <time>2022-07-04T09:02:25.612Z</time>
      </trkpt>
      <trkpt lat="43.66636" lon="3.29643">
        <ele>322.9</ele>
        <time>2022-07-04T09:02:59.972Z</time>
      </trkpt>
      <trkpt lat="43.66644" lon="3.29595">
        <ele>321.6</ele>
        <time>2022-07-04T09:03:21.111Z</time>
      </trkpt>
      <trkpt lat="43.66664" lon="3.29561">
        <ele>317.3</ele>
        <time>2022-07-04T09:03:24.987Z</time>
      </trkpt>
      <trkpt lat="43.66675" lon="3.29527">
        <ele>317</ele>
        <time>2022-07-04T09:03:28.877Z</time>
      </trkpt>
      <trkpt lat="43.66688" lon="3.29493">
        <ele>314.2</ele>
        <time>2022-07-04T09:03:32.279Z</time>
      </trkpt>
      <trkpt lat="43.66685" lon="3.29451">
        <ele>319.2</ele>
        <time>2022-07-04T09:04:09.335Z</time>
      </trkpt>
      <trkpt lat="43.66671" lon="3.29425">
        <ele>328.3</ele>
        <time>2022-07-04T09:04:38.786Z</time>
      </trkpt>
      <trkpt lat="43.66672" lon="3.29388">
        <ele>332.1</ele>
        <time>2022-07-04T09:04:52.041Z</time>
      </trkpt>
      <trkpt lat="43.66689" lon="3.29383">
        <ele>326.5</ele>
        <time>2022-07-04T09:04:54.167Z</time>
      </trkpt>
      <trkpt lat="43.66722" lon="3.29437">
        <ele>316.8</ele>
        <time>2022-07-04T09:05:01.408Z</time>
      </trkpt>
      <trkpt lat="43.66752" lon="3.29487">
        <ele>325.5</ele>
        <time>2022-07-04T09:05:43.852Z</time>
      </trkpt>
      <trkpt lat="43.66747" lon="3.29586">
        <ele>321.6</ele>
        <time>2022-07-04T09:05:52.631Z</time>
      </trkpt>
      <trkpt lat="43.66752" lon="3.29646">
        <ele>319</ele>
        <time>2022-07-04T09:05:59.957Z</time>
      </trkpt>
      <trkpt lat="43.66769" lon="3.29691">
        <ele>321.5</ele>
        <time>2022-07-04T09:06:26.348Z</time>
      </trkpt>
      <trkpt lat="43.66794" lon="3.29735">
        <ele>326.8</ele>
        <time>2022-07-04T09:07:10.826Z</time>
      </trkpt>
      <trkpt lat="43.66815" lon="3.29774">
        <ele>327</ele>
        <time>2022-07-04T09:07:31.795Z</time>
      </trkpt>
      <trkpt lat="43.66838" lon="3.29801">
        <ele>328.8</ele>
        <time>2022-07-04T09:07:51.029Z</time>
      </trkpt>
      <trkpt lat="43.66876" lon="3.29821">
        <ele>331.9</ele>
        <time>2022-07-04T09:08:35.392Z</time>
      </trkpt>
      <trkpt lat="43.66914" lon="3.29839">
        <ele>331.3</ele>
        <time>2022-07-04T09:09:02.679Z</time>
      </trkpt>
      <trkpt lat="43.66962" lon="3.29835">
        <ele>336.3</ele>
        <time>2022-07-04T09:09:37.668Z</time>
      </trkpt>
      <trkpt lat="43.66994" lon="3.29819">
        <ele>343.7</ele>
        <time>2022-07-04T09:09:58.226Z</time>
      </trkpt>
      <trkpt lat="43.67036" lon="3.29827">
        <ele>343.6</ele>
        <time>2022-07-04T09:10:03.800Z</time>
      </trkpt>
      <trkpt lat="43.6708" lon="3.2984">
        <ele>346.1</ele>
        <time>2022-07-04T09:10:46.537Z</time>
      </trkpt>
      <trkpt lat="43.67104" lon="3.29881">
        <ele>348.7</ele>
        <time>2022-07-04T09:11:08.612Z</time>
      </trkpt>
      <trkpt lat="43.67103" lon="3.29938">
        <ele>349.9</ele>
        <time>2022-07-04T09:11:22.042Z</time>
      </trkpt>
      <trkpt lat="43.6708" lon="3.29994">
        <ele>350.4</ele>
        <time>2022-07-04T09:11:37.211Z</time>
      </trkpt>
      <trkpt lat="43.67065" lon="3.30044">
        <ele>352.1</ele>
        <time>2022-07-04T09:11:59.665Z</time>
      </trkpt>
      <trkpt lat="43.67065" lon="3.301">
        <ele>356</ele>
        <time>2022-07-04T09:12:50.544Z</time>
      </trkpt>
      <trkpt lat="43.67031" lon="3.30154">
        <ele>356.3</ele>
        <time>2022-07-04T09:13:07.408Z</time>
      </trkpt>
      <trkpt lat="43.66997" lon="3.30201">
        <ele>358.9</ele>
        <time>2022-07-04T09:13:32.704Z</time>
      </trkpt>
      <trkpt lat="43.66966" lon="3.30256">
        <ele>360.3</ele>
        <time>2022-07-04T09:13:41.465Z</time>
      </trkpt>
      <trkpt lat="43.66948" lon="3.30309">
        <ele>361.5</ele>
        <time>2022-07-04T09:13:59.063Z</time>
      </trkpt>
      <trkpt lat="43.66938" lon="3.3036">
        <ele>361.5</ele>
        <time>2022-07-04T09:14:03.738Z</time>
      </trkpt>
      <trkpt lat="43.66905" lon="3.30401">
        <ele>361.8</ele>
        <time>2022-07-04T09:14:46.858Z</time>
      </trkpt>
      <trkpt lat="43.66888" lon="3.30469">
        <ele>359.3</ele>
        <time>2022-07-04T09:14:53.996Z</time>
      </trkpt>
      <trkpt lat="43.66865" lon="3.30533">
        <ele>358.9</ele>
        <time>2022-07-04T09:15:03.027Z</time>
      </trkpt>
      <trkpt lat="43.66841" lon="3.30582">
        <ele>361</ele>
        <time>2022-07-04T09:15:31.095Z</time>
      </trkpt>
      <trkpt lat="43.66814" lon="3.30658">
        <ele>367.8</ele>
        <time>2022-07-04T09:16:15.090Z</time>
      </trkpt>
      <trkpt lat="43.66752" lon="3.30675">
        <ele>373.1</ele>
        <time>2022-07-04T09:17:14.879Z</time>
      </trkpt>
      <trkpt lat="43.66693" lon="3.30684">
        <ele>376.4</ele>
        <time>2022-07-04T09:17:42.838Z</time>
      </trkpt>
      <trkpt lat="43.66663" lon="3.30717">
        <ele>378.2</ele>
      </trkpt>
      <trkpt lat="43.66655" lon="3.30793">
        <ele>383.2</ele>
        <time>2022-07-04T09:18:30.009Z</time>
      </trkpt>
      <trkpt lat="43.66661" lon="3.30849">
        <ele>386.4</ele>
        <time>2022-07-04T09:19:06.204Z</time>
      </trkpt>
      <trkpt lat="43.66704" lon="3.30939">
        <ele>391.7</ele>
        <time>2022-07-04T09:20:00.138Z</time>
      </trkpt>
      <trkpt lat="43.66733" lon="3.30988">
        <ele>393.7</ele>
        <time>2022-07-04T09:20:24.996Z</time>
      </trkpt>
      <trkpt lat="43.66743" lon="3.31008">
        <ele>394.2</ele>
      </trkpt>
      <trkpt lat="43.66723" lon="3.31079">
        <ele>394.8</ele>
        <time>2022-07-04T09:20:50.279Z</time>
      </trkpt>
      <trkpt lat="43.66712" lon="3.31128">
        <ele>395.8</ele>
        <time>2022-07-04T09:21:11.454Z</time>
      </trkpt>
      <trkpt lat="43.66726" lon="3.31181">
        <ele>396.4</ele>
        <time>2022-07-04T09:21:34.563Z</time>
      </trkpt>
      <trkpt lat="43.66717" lon="3.31254">
        <ele>397.2</ele>
        <time>2022-07-04T09:21:52.007Z</time>
      </trkpt>
      <trkpt lat="43.66653" lon="3.31211">
        <ele>398.7</ele>
        <time>2022-07-04T09:22:18.604Z</time>
      </trkpt>
      <trkpt lat="43.6662" lon="3.31185">
        <ele>399.7</ele>
        <time>2022-07-04T09:22:34.904Z</time>
      </trkpt>
      <trkpt lat="43.66576" lon="3.31127">
        <ele>401.7</ele>
        <time>2022-07-04T09:22:54.703Z</time>
      </trkpt>
      <trkpt lat="43.66531" lon="3.31144">
        <ele>404.7</ele>
        <time>2022-07-04T09:23:13.607Z</time>
      </trkpt>
      <trkpt lat="43.66493" lon="3.31163">
        <ele>403.1</ele>
        <time>2022-07-04T09:23:30.623Z</time>
      </trkpt>
      <trkpt lat="43.66461" lon="3.31201">
        <ele>400.1</ele>
        <time>2022-07-04T09:23:35.783Z</time>
      </trkpt>
      <trkpt lat="43.66453" lon="3.31257">
        <ele>394.1</ele>
        <time>2022-07-04T09:23:40.833Z</time>
      </trkpt>
      <trkpt lat="43.66478" lon="3.31291">
        <ele>389.9</ele>
        <time>2022-07-04T09:23:46.360Z</time>
      </trkpt>
      <trkpt lat="43.66522" lon="3.31328">
        <ele>386.9</ele>
        <time>2022-07-04T09:24:12.391Z</time>
      </trkpt>
      <trkpt lat="43.66553" lon="3.31368">
        <ele>384.5</ele>
        <time>2022-07-04T09:24:17.578Z</time>
      </trkpt>
      <trkpt lat="43.66577" lon="3.31415">
        <ele>381.8</ele>
        <time>2022-07-04T09:24:31.130Z</time>
      </trkpt>
      <trkpt lat="43.66611" lon="3.31478">
        <ele>381.6</ele>
        <time>2022-07-04T09:24:49.646Z</time>
      </trkpt>
      <trkpt lat="43.66641" lon="3.31532">
        <ele>381.8</ele>
        <time>2022-07-04T09:24:58.154Z</time>
      </trkpt>
      <trkpt lat="43.66603" lon="3.31536">
        <ele>376.3</ele>
        <time>2022-07-04T09:25:02.815Z</time>
      </trkpt>
      <trkpt lat="43.66531" lon="3.3149">
        <ele>367.9</ele>
        <time>2022-07-04T09:25:12.516Z</time>
      </trkpt>
      <trkpt lat="43.66454" lon="3.31449">
        <ele>361.2</ele>
        <time>2022-07-04T09:25:22.607Z</time>
      </trkpt>
      <trkpt lat="43.66389" lon="3.31414">
        <ele>358.3</ele>
        <time>2022-07-04T09:25:45.324Z</time>
      </trkpt>
      <trkpt lat="43.66328" lon="3.31375">
        <ele>353.5</ele>
        <time>2022-07-04T09:25:53.543Z</time>
      </trkpt>
      <trkpt lat="43.66272" lon="3.31374">
        <ele>347.5</ele>
        <time>2022-07-04T09:26:00.392Z</time>
      </trkpt>
      <trkpt lat="43.66223" lon="3.31315">
        <ele>342.4</ele>
        <time>2022-07-04T09:26:08.340Z</time>
      </trkpt>
      <trkpt lat="43.66187" lon="3.31258">
        <ele>336.6</ele>
        <time>2022-07-04T09:26:33.706Z</time>
      </trkpt>
      <trkpt lat="43.66139" lon="3.312">
        <ele>326.7</ele>
        <time>2022-07-04T09:26:42.752Z</time>
      </trkpt>
      <trkpt lat="43.66114" lon="3.31125">
        <ele>314.5</ele>
        <time>2022-07-04T09:26:49.511Z</time>
      </trkpt>
      <trkpt lat="43.66096" lon="3.31132">
        <ele>308.4</ele>
        <time>2022-07-04T09:26:56.921Z</time>
      </trkpt>
      <trkpt lat="43.66055" lon="3.31188">
        <ele>293.6</ele>
        <time>2022-07-04T09:27:03.970Z</time>
      </trkpt>
      <trkpt lat="43.66032" lon="3.31214">
        <ele>284.5</ele>
        <time>2022-07-04T09:27:10.504Z</time>
      </trkpt>
      <trkpt lat="43.66037" lon="3.31261">
        <ele>285.1</ele>
        <time>2022-07-04T09:27:15.587Z</time>
      </trkpt>
      <trkpt lat="43.66037" lon="3.31301">
        <ele>281.3</ele>
        <time>2022-07-04T09:27:33.920Z</time>
      </trkpt>
      <trkpt lat="43.66028" lon="3.31334">
        <ele>278.1</ele>
        <time>2022-07-04T09:28:40.649Z</time>
      </trkpt>
      <trkpt lat="43.66021" lon="3.31348">
        <ele>276.1</ele>
        <time>2022-07-04T09:28:46.383Z</time>
      </trkpt>
      <trkpt lat="43.66018" lon="3.31356">
        <ele>275.1</ele>
      </trkpt>
      <trkpt lat="43.65984" lon="3.31399">
        <ele>267</ele>
        <time>2022-07-04T09:28:52.548Z</time>
      </trkpt>
      <trkpt lat="43.65942" lon="3.31464">
        <ele>250.2</ele>
      </trkpt>
      <trkpt lat="43.65927" lon="3.31509">
        <ele>241.1</ele>
        <time>2022-07-04T09:29:04.214Z</time>
      </trkpt>
      <trkpt lat="43.65957" lon="3.31519">
        <ele>242.7</ele>
        <time>2022-07-04T09:29:23.891Z</time>
      </trkpt>
      <trkpt lat="43.65921" lon="3.31546">
        <ele>231.5</ele>
        <time>2022-07-04T09:29:30.121Z</time>
      </trkpt>
      <trkpt lat="43.65878" lon="3.31591">
        <ele>214.3</ele>
        <time>2022-07-04T09:29:36.717Z</time>
      </trkpt>
      <trkpt lat="43.65876" lon="3.31591">
        <ele>214</ele>
      </trkpt>
      <trkpt lat="43.65838" lon="3.31629">
        <ele>202.7</ele>
        <time>2022-07-04T09:29:42.653Z</time>
      </trkpt>
      <trkpt lat="43.65833" lon="3.31695">
        <ele>188.8</ele>
        <time>2022-07-04T09:29:48.607Z</time>
      </trkpt>
      <trkpt lat="43.65792" lon="3.31739">
        <ele>179.1</ele>
        <time>2022-07-04T09:29:53.920Z</time>
      </trkpt>
      <trkpt lat="43.65743" lon="3.31796">
        <ele>171.8</ele>
        <time>2022-07-04T09:30:01.753Z</time>
      </trkpt>
      <trkpt lat="43.65691" lon="3.31818">
        <ele>168.3</ele>
        <time>2022-07-04T09:30:08.404Z</time>
      </trkpt>
      <trkpt lat="43.65663" lon="3.31821">
        <ele>167.5</ele>
      </trkpt>
      <trkpt lat="43.65621" lon="3.31779">
        <ele>165.4</ele>
        <time>2022-07-04T09:30:15.261Z</time>
      </trkpt>
      <trkpt lat="43.65558" lon="3.3178">
        <ele>161.2</ele>
        <time>2022-07-04T09:30:25.324Z</time>
      </trkpt>
      <trkpt lat="43.655" lon="3.31768">
        <ele>158</ele>
        <time>2022-07-04T09:30:32.418Z</time>
      </trkpt>
      <trkpt lat="43.65438" lon="3.31766">
        <ele>154.2</ele>
        <time>2022-07-04T09:30:43.681Z</time>
      </trkpt>
      <trkpt lat="43.65418" lon="3.31813">
        <ele>153.7</ele>
        <time>2022-07-04T09:30:48.138Z</time>
      </trkpt>
      <trkpt lat="43.65378" lon="3.31855">
        <ele>152.7</ele>
        <time>2022-07-04T09:30:53.613Z</time>
      </trkpt>
      <trkpt lat="43.65427" lon="3.31918">
        <ele>152.7</ele>
        <time>2022-07-04T09:31:03.402Z</time>
      </trkpt>
      <trkpt lat="43.65424" lon="3.31971">
        <ele>153.2</ele>
        <time>2022-07-04T09:31:25.107Z</time>
      </trkpt>
      <trkpt lat="43.65427" lon="3.3201">
        <ele>153</ele>
      </trkpt>
      <trkpt lat="43.65417" lon="3.32059">
        <ele>150.9</ele>
        <time>2022-07-04T09:31:36.814Z</time>
      </trkpt>
      <trkpt lat="43.65403" lon="3.32105">
        <ele>149.5</ele>
        <time>2022-07-04T09:31:40.924Z</time>
      </trkpt>
      <trkpt lat="43.65389" lon="3.32127">
        <ele>149</ele>
        <time>2022-07-04T09:31:58.929Z</time>
      </trkpt>
      <trkpt lat="43.65385" lon="3.32247">
        <ele>148.9</ele>
        <time>2022-07-04T09:32:19.355Z</time>
      </trkpt>
      <trkpt lat="43.65395" lon="3.32343">
        <ele>147.4</ele>
        <time>2022-07-04T09:32:30.913Z</time>
      </trkpt>
      <trkpt lat="43.65394" lon="3.32361">
        <ele>147.2</ele>
        <time>2022-07-04T09:32:46.043Z</time>
      </trkpt>
      <trkpt lat="43.65387" lon="3.32367">
        <ele>146.9</ele>
      </trkpt>
      <trkpt lat="43.65357" lon="3.32393">
        <ele>144.8</ele>
      </trkpt>
      <trkpt lat="43.65335" lon="3.32424">
        <ele>144.1</ele>
        <time>2022-07-04T09:33:16.003Z</time>
      </trkpt>
      <trkpt lat="43.65327" lon="3.32486">
        <ele>143.9</ele>
        <time>2022-07-04T09:33:33.144Z</time>
      </trkpt>
      <trkpt lat="43.65319" lon="3.32516">
        <ele>143.7</ele>
        <time>2022-07-04T09:33:39.855Z</time>
      </trkpt>
      <trkpt lat="43.65312" lon="3.32537">
        <ele>143.5</ele>
        <time>2022-07-04T09:33:46.459Z</time>
      </trkpt>
      <trkpt lat="43.65307" lon="3.32589">
        <ele>142.9</ele>
      </trkpt>
      <trkpt lat="43.65316" lon="3.3265">
        <ele>142</ele>
        <time>2022-07-04T09:33:59.948Z</time>
      </trkpt>
      <trkpt lat="43.65334" lon="3.32739">
        <ele>140.4</ele>
        <time>2022-07-04T09:34:25.179Z</time>
      </trkpt>
      <trkpt lat="43.65351" lon="3.32842">
        <ele>140</ele>
        <time>2022-07-04T09:34:50.032Z</time>
      </trkpt>
      <trkpt lat="43.65378" lon="3.32883">
        <ele>140.1</ele>
        <time>2022-07-04T09:35:02.440Z</time>
      </trkpt>
      <trkpt lat="43.65423" lon="3.32932">
        <ele>140.1</ele>
        <time>2022-07-04T09:35:41.136Z</time>
      </trkpt>
      <trkpt lat="43.65449" lon="3.32935">
        <ele>143</ele>
        <time>2022-07-04T09:35:56.693Z</time>
      </trkpt>
      <trkpt lat="43.65476" lon="3.32941">
        <ele>146.2</ele>
      </trkpt>
      <trkpt lat="43.65506" lon="3.32994">
        <ele>146.7</ele>
        <time>2022-07-04T09:36:22.755Z</time>
      </trkpt>
      <trkpt lat="43.6552" lon="3.33061">
        <ele>142</ele>
        <time>2022-07-04T09:37:18.387Z</time>
      </trkpt>
      <trkpt lat="43.65558" lon="3.33117">
        <ele>142.1</ele>
        <time>2022-07-04T09:37:25.525Z</time>
      </trkpt>
      <trkpt lat="43.65584" lon="3.33163">
        <ele>140.6</ele>
        <time>2022-07-04T09:37:43.006Z</time>
      </trkpt>
      <trkpt lat="43.65617" lon="3.33206">
        <ele>140.4</ele>
        <time>2022-07-04T09:37:57.775Z</time>
      </trkpt>
      <trkpt lat="43.65644" lon="3.33236">
        <ele>140.9</ele>
        <time>2022-07-04T09:38:09.057Z</time>
      </trkpt>
      <trkpt lat="43.65654" lon="3.3326">
        <ele>142.5</ele>
      </trkpt>
      <trkpt lat="43.65648" lon="3.33278">
        <ele>141.7</ele>
      </trkpt>
      <trkpt lat="43.65668" lon="3.33321">
        <ele>141.6</ele>
      </trkpt>
      <trkpt lat="43.65674" lon="3.3333">
        <ele>141.3</ele>
        <time>2022-07-04T09:38:18.455Z</time>
      </trkpt>
      <trkpt lat="43.65695" lon="3.33346">
        <ele>141.2</ele>
      </trkpt>
      <trkpt lat="43.65704" lon="3.3335">
        <ele>142</ele>
      </trkpt>
      <trkpt lat="43.65711" lon="3.33359">
        <ele>141.7</ele>
        <time>2022-07-04T09:38:26.918Z</time>
      </trkpt>
      <trkpt lat="43.65729" lon="3.33391">
        <ele>141.1</ele>
      </trkpt>
      <trkpt lat="43.65763" lon="3.33418">
        <ele>141.7</ele>
        <time>2022-07-04T09:39:11.038Z</time>
      </trkpt>
      <trkpt lat="43.65782" lon="3.33436">
        <ele>141.5</ele>
      </trkpt>
      <trkpt lat="43.65805" lon="3.33443">
        <ele>141.2</ele>
        <time>2022-07-04T09:39:16.725Z</time>
      </trkpt>
      <trkpt lat="43.65833" lon="3.33448">
        <ele>141.5</ele>
      </trkpt>
      <trkpt lat="43.65847" lon="3.3345">
        <ele>141.2</ele>
      </trkpt>
      <trkpt lat="43.65861" lon="3.33439">
        <ele>143.2</ele>
        <time>2022-07-04T09:39:49.759Z</time>
      </trkpt>
      <trkpt lat="43.6588" lon="3.33438">
        <ele>143.5</ele>
      </trkpt>
      <trkpt lat="43.65882" lon="3.33465">
        <ele>139.6</ele>
      </trkpt>
      <trkpt lat="43.65915" lon="3.33484">
        <ele>141</ele>
        <time>2022-07-04T09:40:01.583Z</time>
      </trkpt>
      <trkpt lat="43.6594" lon="3.33531">
        <ele>142.3</ele>
        <time>2022-07-04T09:40:25.211Z</time>
      </trkpt>
      <trkpt lat="43.65976" lon="3.33536">
        <ele>146.8</ele>
        <time>2022-07-04T09:40:46.552Z</time>
      </trkpt>
      <trkpt lat="43.66009" lon="3.3354">
        <ele>149.2</ele>
        <time>2022-07-04T09:41:28.162Z</time>
      </trkpt>
      <trkpt lat="43.66034" lon="3.33534">
        <ele>151.6</ele>
        <time>2022-07-04T09:41:51.412Z</time>
      </trkpt>
      <trkpt lat="43.66117" lon="3.33567">
        <ele>153.7</ele>
        <time>2022-07-04T09:42:43.692Z</time>
      </trkpt>
      <trkpt lat="43.66121" lon="3.33584">
        <ele>152.7</ele>
        <time>2022-07-04T09:42:47.598Z</time>
      </trkpt>
      <trkpt lat="43.66178" lon="3.33611">
        <ele>157</ele>
        <time>2022-07-04T09:43:31.367Z</time>
      </trkpt>
      <trkpt lat="43.6623" lon="3.33623">
        <ele>156.7</ele>
        <time>2022-07-04T09:43:48.535Z</time>
      </trkpt>
      <trkpt lat="43.66295" lon="3.33622">
        <ele>160.8</ele>
        <time>2022-07-04T09:44:24.639Z</time>
      </trkpt>
      <trkpt lat="43.66346" lon="3.33618">
        <ele>161.6</ele>
        <time>2022-07-04T09:44:50.576Z</time>
      </trkpt>
      <trkpt lat="43.66396" lon="3.33605">
        <ele>162.4</ele>
        <time>2022-07-04T09:45:02.960Z</time>
      </trkpt>
      <trkpt lat="43.66385" lon="3.3367">
        <ele>154.9</ele>
        <time>2022-07-04T09:45:07.739Z</time>
      </trkpt>
      <trkpt lat="43.66386" lon="3.33717">
        <ele>151.3</ele>
        <time>2022-07-04T09:45:11.899Z</time>
      </trkpt>
      <trkpt lat="43.66366" lon="3.33769">
        <ele>146.1</ele>
        <time>2022-07-04T09:45:17.109Z</time>
      </trkpt>
      <trkpt lat="43.66358" lon="3.33834">
        <ele>144.9</ele>
        <time>2022-07-04T09:45:25.285Z</time>
      </trkpt>
      <trkpt lat="43.66315" lon="3.33847">
        <ele>141.8</ele>
        <time>2022-07-04T09:45:30.668Z</time>
      </trkpt>
      <trkpt lat="43.66293" lon="3.33876">
        <ele>142</ele>
        <time>2022-07-04T09:45:40.568Z</time>
      </trkpt>
      <trkpt lat="43.66263" lon="3.33939">
        <ele>142.2</ele>
        <time>2022-07-04T09:46:01.921Z</time>
      </trkpt>
      <trkpt lat="43.66229" lon="3.33988">
        <ele>144.5</ele>
        <time>2022-07-04T09:46:10.400Z</time>
      </trkpt>
    </trkseg>
  </trk>
</gpx>